Seavoyager — 9HUM8 — position and weather

sailwx.info

Track history (hours):
 
Tides and Currents Weather Stations Pressure Air Temp Water Temp Dewpoint Dewpoint Depression Visibility Wind Speed Wind Dir Waves Ship Positions

Seavoyager

Last reported at 2014-Oct-31 03:34 UTC. Time now 2014-Oct-31 04:03 UTC.
Position N 38°12' W 009°58'.

Length 273 m; draft 9.2 m.

Type: Tanker. MMSI: 256439000.

Date/timePositionNaut miles runAvg speedWind from/ knotsBaromVisibWave heightAir tempDewpointWater temp
2014-Oct-31 03:34N 38°12' W 009°58'1111.0
2014-Oct-31 02:33N 38°23' W 010°01'2211.0
2014-Oct-31 00:33N 38°44' W 010°06'1211.2
2014-Oct-30 23:27N 38°57' W 010°07'50011.3
2014-Oct-29 03:07N 47°01' W 007°18'19111.4
2014-Oct-28 10:20N 49°29' W 004°16'3010.9
2014-Oct-28 07:33N 49°44' W 003°35'1110.9
2014-Oct-28 06:33N 49°50' W 003°20'1212.1
2014-Oct-28 05:34N 49°56' W 003°04'1413.5
2014-Oct-28 04:33N 50°01' W 002°45'1514.7
2014-Oct-28 03:33N 50°05' W 002°23'1514.9
2014-Oct-28 02:33N 50°09' W 002°00'1413.6
2014-Oct-28 01:33N 50°12' W 001°40'1211.9
2014-Oct-28 00:34N 50°16' W 001°22'1110.5
2014-Oct-27 23:33N 50°22' W 001°09'1010.1
2014-Oct-27 22:33N 50°31' W 001°01'1010.0
2014-Oct-27 21:33N 50°40' W 000°56'1413.5
2014-Oct-27 20:33N 50°46' W 001°15'5 5.1
2014-Oct-27 19:33N 50°50' W 001°20'0 0.0
2014-Oct-27 18:07N 50°50' W 001°20'0 0.0
2014-Oct-27 14:07N 50°50' W 001°20'0 0.0
2014-Oct-27 13:19N 50°50' W 001°20'0 0.0
2014-Oct-27 12:13N 50°50' W 001°20'0 0.0
2014-Oct-27 11:13N 50°50' W 001°20'0 0.0
2014-Oct-27 09:25N 50°50' W 001°20'0 0.0
2014-Oct-27 08:13N 50°50' W 001°20'0 0.0
2014-Oct-27 07:31N 50°50' W 001°20'0 0.0
2014-Oct-27 02:25N 50°50' W 001°20'0 0.0
2014-Oct-26 22:13N 50°50' W 001°20'0 0.0
2014-Oct-26 16:25N 50°50' W 001°20'0 0.0
2014-Oct-26 15:25N 50°50' W 001°20'0 0.0
2014-Oct-26 12:34N 50°50' W 001°20'1 0.7
2014-Oct-26 11:34N 50°50' W 001°19'5 5.2
2014-Oct-26 10:33N 50°46' W 001°13'10 9.8
2014-Oct-26 09:33N 50°43' W 000°59'7 7.4
2014-Oct-26 08:33N 50°35' W 000°58'2 2.1
2014-Oct-26 07:33N 50°35' W 001°01'0 0.0
2014-Oct-26 06:33N 50°35' W 001°01'0 0.3
2014-Oct-26 05:30N 50°35' W 001°02'0 0.0
2014-Oct-26 04:33N 50°35' W 001°02'0 0.0
2014-Oct-26 03:33N 50°35' W 001°02'0 0.0
2014-Oct-26 02:33N 50°35' W 001°02'0 0.0
2014-Oct-26 01:30N 50°35' W 001°02'0 0.1
2014-Oct-26 00:30N 50°35' W 001°02'0 0.4
2014-Oct-25 23:33N 50°35' W 001°01'0 0.1
2014-Oct-25 22:33N 50°35' W 001°01'0 0.0
2014-Oct-25 21:33N 50°35' W 001°01'0 0.0
2014-Oct-25 20:30N 50°35' W 001°01'0 0.0
2014-Oct-25 19:30N 50°35' W 001°01'0 0.0
2014-Oct-25 18:33N 50°35' W 001°01'0 0.3
2014-Oct-25 17:30N 50°35' W 001°02'0 0.1
2014-Oct-25 16:30N 50°35' W 001°02'0 0.0
2014-Oct-25 15:33N 50°35' W 001°02'0 0.1
2014-Oct-25 14:30N 50°35' W 001°02'0 0.0
2014-Oct-25 13:30N 50°35' W 001°02'0 0.1
2014-Oct-25 12:30N 50°35' W 001°02'0 0.3
2014-Oct-25 11:27N 50°35' W 001°01'0 0.0
2014-Oct-25 10:30N 50°35' W 001°01'0 0.0
2014-Oct-25 09:33N 50°35' W 001°01'0 0.0
2014-Oct-25 08:33N 50°35' W 001°01'0 0.0
2014-Oct-25 07:33N 50°35' W 001°01'0 0.0
2014-Oct-25 06:33N 50°35' W 001°01'0 0.3
2014-Oct-25 05:30N 50°35' W 001°02'0 0.1
2014-Oct-25 04:30N 50°35' W 001°02'0 0.0
2014-Oct-25 03:30N 50°35' W 001°02'0 0.0
2014-Oct-25 02:30N 50°35' W 001°02'0 0.0
2014-Oct-25 01:30N 50°35' W 001°02'0 0.0
2014-Oct-25 00:24N 50°35' W 001°02'0 0.2
2014-Oct-24 23:33N 50°35' W 001°01'0 0.3
2014-Oct-24 22:33N 50°35' W 001°01'0 0.0
2014-Oct-24 21:33N 50°35' W 001°01'0 0.0
2014-Oct-24 20:33N 50°35' W 001°01'0 0.0
2014-Oct-24 19:33N 50°35' W 001°01'0 0.0
2014-Oct-24 18:33N 50°35' W 001°01'0 0.1
2014-Oct-24 17:33N 50°35' W 001°01'0 0.3
2014-Oct-24 16:30N 50°35' W 001°02'0 0.0
2014-Oct-24 15:33N 50°35' W 001°02'0 0.0
2014-Oct-24 14:30N 50°35' W 001°02'0 0.0
2014-Oct-24 13:30N 50°35' W 001°02'0 0.0
2014-Oct-24 12:29N 50°35' W 001°02'0 0.0
2014-Oct-24 11:30N 50°35' W 001°02'0 0.3
2014-Oct-24 10:29N 50°35' W 001°01'0 0.0
2014-Oct-24 09:32N 50°35' W 001°01'0 0.0
2014-Oct-24 08:32N 50°35' W 001°01'0 0.0
2014-Oct-24 07:29N 50°35' W 001°01'0 0.0
2014-Oct-24 06:29N 50°35' W 001°01'0 0.0
2014-Oct-24 05:32N 50°35' W 001°01'0 0.3
2014-Oct-24 04:29N 50°35' W 001°02'0 0.1
2014-Oct-24 03:29N 50°35' W 001°02'0 0.0
2014-Oct-24 02:32N 50°35' W 001°02'0 0.0
2014-Oct-24 01:29N 50°35' W 001°02'0 0.0
2014-Oct-24 00:29N 50°35' W 001°02'0 0.0
2014-Oct-23 23:29N 50°35' W 001°02'0 0.4
2014-Oct-23 22:29N 50°35' W 001°01'0 0.1
2014-Oct-23 21:29N 50°35' W 001°01'0 0.0
2014-Oct-23 20:32N 50°35' W 001°01'0 0.0
2014-Oct-23 19:29N 50°35' W 001°01'0 0.0
2014-Oct-23 18:32N 50°35' W 001°01'0 0.0
2014-Oct-23 17:29N 50°35' W 001°01'0 0.2
2014-Oct-23 16:17N 50°35' W 001°01'0 0.2
2014-Oct-23 15:29N 50°35' W 001°02'0 0.0
2014-Oct-23 14:23N 50°35' W 001°02'0 0.0
2014-Oct-23 13:29N 50°35' W 001°02'0 0.0
2014-Oct-23 12:32N 50°35' W 001°02'0 0.0
2014-Oct-23 11:29N 50°35' W 001°02'0 0.4
2014-Oct-23 10:29N 50°35' W 001°01'0 0.0
2014-Oct-23 09:32N 50°35' W 001°01'0 0.1
2014-Oct-23 08:33N 50°35' W 001°01'3 2.8
2014-Oct-23 07:34N 50°35' W 000°57'9 9.0
2014-Oct-23 06:33N 50°33' W 000°43'1110.7
2014-Oct-23 05:33N 50°31' W 000°26'1311.8
2014-Oct-23 04:30N 50°31' W 000°07'1213.2
2014-Oct-23 03:34N 50°34' E 000°12'1313.4
2014-Oct-23 02:34N 50°37' E 000°33'1313.0
2014-Oct-23 01:34N 50°45' E 000°49'1211.8
2014-Oct-23 00:33N 50°52' E 001°05'1010.5
2014-Oct-22 23:33N 50°59' E 001°17'1010.0
2014-Oct-22 22:34N 51°05' E 001°29'1110.7
2014-Oct-22 21:34N 51°12' E 001°42'1312.8
2014-Oct-22 20:34N 51°23' E 001°53'1414.2
2014-Oct-22 19:33N 51°34' E 002°07'1414.1
2014-Oct-22 18:32N 51°45' E 002°23'4811.7
2014-Oct-22 14:27N 52°04' E 003°33'910.3
2014-Oct-22 13:33N 52°05' E 003°49'4 3.6
2014-Oct-22 12:34N 52°03' E 003°53'2 1.7
2014-Oct-22 11:33N 52°02' E 003°56'7 6.5
2014-Oct-22 10:33N 51°59' E 004°05'4 3.6
2014-Oct-22 09:33N 51°56' E 004°10'0 0.0
2014-Oct-22 08:32N 51°56' E 004°10'0 0.0
2014-Oct-22 07:32N 51°56' E 004°10'0 0.0
2014-Oct-22 06:32N 51°56' E 004°10'0 0.0
2014-Oct-22 05:32N 51°56' E 004°10'0 0.0
2014-Oct-22 04:32N 51°56' E 004°10'0 0.0
2014-Oct-22 03:32N 51°56' E 004°10'0 0.0
2014-Oct-22 02:32N 51°56' E 004°10'0 0.0
2014-Oct-22 01:29N 51°56' E 004°10'0 0.0
2014-Oct-22 00:32N 51°56' E 004°10'0 0.0
2014-Oct-21 23:32N 51°56' E 004°10'0 0.0
2014-Oct-21 22:32N 51°56' E 004°10'0 0.0
2014-Oct-21 21:32N 51°56' E 004°10'0 0.0
2014-Oct-21 20:32N 51°56' E 004°10'0 0.0
2014-Oct-21 19:32N 51°56' E 004°10'0 0.0
2014-Oct-21 18:29N 51°56' E 004°10'0 0.0
2014-Oct-21 17:32N 51°56' E 004°10'0 0.0
2014-Oct-21 16:32N 51°56' E 004°10'0 0.0
2014-Oct-21 15:32N 51°56' E 004°10'0 0.0
2014-Oct-21 14:32N 51°56' E 004°10'3 2.7
2014-Oct-21 13:33N 51°58' E 004°06'1010.0
2014-Oct-21 12:33N 52°01' E 003°51'6 5.5
2014-Oct-21 11:33N 52°01' E 003°42'  
Track history (hours):
 
Tides and Currents Weather Stations Pressure Air Temp Water Temp Dewpoint Dewpoint Depression Visibility Wind Speed Wind Dir Waves Ship Positions

Seavoyager

Last reported at 2014-Oct-31 03:34 UTC. Time now 2014-Oct-31 04:03 UTC.
Position N 38°12' W 009°58'.

Length 273 m; draft 9.2 m.

Type: Tanker. MMSI: 256439000.

Date/timePositionNaut miles runAvg speedWind from/ knotsBaromVisibWave heightAir tempDewpointWater temp
2014-Oct-31 03:34N 38°12' W 009°58'1111.0
2014-Oct-31 02:33N 38°23' W 010°01'2211.0
2014-Oct-31 00:33N 38°44' W 010°06'1211.2
2014-Oct-30 23:27N 38°57' W 010°07'50011.3
2014-Oct-29 03:07N 47°01' W 007°18'19111.4
2014-Oct-28 10:20N 49°29' W 004°16'3010.9
2014-Oct-28 07:33N 49°44' W 003°35'1110.9
2014-Oct-28 06:33N 49°50' W 003°20'1212.1
2014-Oct-28 05:34N 49°56' W 003°04'1413.5
2014-Oct-28 04:33N 50°01' W 002°45'1514.7
2014-Oct-28 03:33N 50°05' W 002°23'1514.9
2014-Oct-28 02:33N 50°09' W 002°00'1413.6
2014-Oct-28 01:33N 50°12' W 001°40'1211.9
2014-Oct-28 00:34N 50°16' W 001°22'1110.5
2014-Oct-27 23:33N 50°22' W 001°09'1010.1
2014-Oct-27 22:33N 50°31' W 001°01'1010.0
2014-Oct-27 21:33N 50°40' W 000°56'1413.5
2014-Oct-27 20:33N 50°46' W 001°15'5 5.1
2014-Oct-27 19:33N 50°50' W 001°20'0 0.0
2014-Oct-27 18:07N 50°50' W 001°20'0 0.0
2014-Oct-27 14:07N 50°50' W 001°20'0 0.0
2014-Oct-27 13:19N 50°50' W 001°20'0 0.0
2014-Oct-27 12:13N 50°50' W 001°20'0 0.0
2014-Oct-27 11:13N 50°50' W 001°20'0 0.0
2014-Oct-27 09:25N 50°50' W 001°20'0 0.0
2014-Oct-27 08:13N 50°50' W 001°20'0 0.0
2014-Oct-27 07:31N 50°50' W 001°20'0 0.0
2014-Oct-27 02:25N 50°50' W 001°20'0 0.0
2014-Oct-26 22:13N 50°50' W 001°20'0 0.0
2014-Oct-26 16:25N 50°50' W 001°20'0 0.0
2014-Oct-26 15:25N 50°50' W 001°20'0 0.0
2014-Oct-26 12:34N 50°50' W 001°20'1 0.7
2014-Oct-26 11:34N 50°50' W 001°19'5 5.2
2014-Oct-26 10:33N 50°46' W 001°13'10 9.8
2014-Oct-26 09:33N 50°43' W 000°59'7 7.4
2014-Oct-26 08:33N 50°35' W 000°58'2 2.1
2014-Oct-26 07:33N 50°35' W 001°01'0 0.0
2014-Oct-26 06:33N 50°35' W 001°01'0 0.3
2014-Oct-26 05:30N 50°35' W 001°02'0 0.0
2014-Oct-26 04:33N 50°35' W 001°02'0 0.0
2014-Oct-26 03:33N 50°35' W 001°02'0 0.0
2014-Oct-26 02:33N 50°35' W 001°02'0 0.0
2014-Oct-26 01:30N 50°35' W 001°02'0 0.1
2014-Oct-26 00:30N 50°35' W 001°02'0 0.4
2014-Oct-25 23:33N 50°35' W 001°01'0 0.1
2014-Oct-25 22:33N 50°35' W 001°01'0 0.0
2014-Oct-25 21:33N 50°35' W 001°01'0 0.0
2014-Oct-25 20:30N 50°35' W 001°01'0 0.0
2014-Oct-25 19:30N 50°35' W 001°01'0 0.0
2014-Oct-25 18:33N 50°35' W 001°01'0 0.3
2014-Oct-25 17:30N 50°35' W 001°02'0 0.1
2014-Oct-25 16:30N 50°35' W 001°02'0 0.0
2014-Oct-25 15:33N 50°35' W 001°02'0 0.1
2014-Oct-25 14:30N 50°35' W 001°02'0 0.0
2014-Oct-25 13:30N 50°35' W 001°02'0 0.1
2014-Oct-25 12:30N 50°35' W 001°02'0 0.3
2014-Oct-25 11:27N 50°35' W 001°01'0 0.0
2014-Oct-25 10:30N 50°35' W 001°01'0 0.0
2014-Oct-25 09:33N 50°35' W 001°01'0 0.0
2014-Oct-25 08:33N 50°35' W 001°01'0 0.0
2014-Oct-25 07:33N 50°35' W 001°01'0 0.0
2014-Oct-25 06:33N 50°35' W 001°01'0 0.3
2014-Oct-25 05:30N 50°35' W 001°02'0 0.1
2014-Oct-25 04:30N 50°35' W 001°02'0 0.0
2014-Oct-25 03:30N 50°35' W 001°02'0 0.0
2014-Oct-25 02:30N 50°35' W 001°02'0 0.0
2014-Oct-25 01:30N 50°35' W 001°02'0 0.0
2014-Oct-25 00:24N 50°35' W 001°02'0 0.2
2014-Oct-24 23:33N 50°35' W 001°01'0 0.3
2014-Oct-24 22:33N 50°35' W 001°01'0 0.0
2014-Oct-24 21:33N 50°35' W 001°01'0 0.0
2014-Oct-24 20:33N 50°35' W 001°01'0 0.0
2014-Oct-24 19:33N 50°35' W 001°01'0 0.0
2014-Oct-24 18:33N 50°35' W 001°01'0 0.1
2014-Oct-24 17:33N 50°35' W 001°01'0 0.3
2014-Oct-24 16:30N 50°35' W 001°02'0 0.0
2014-Oct-24 15:33N 50°35' W 001°02'0 0.0
2014-Oct-24 14:30N 50°35' W 001°02'0 0.0
2014-Oct-24 13:30N 50°35' W 001°02'0 0.0
2014-Oct-24 12:29N 50°35' W 001°02'0 0.0
2014-Oct-24 11:30N 50°35' W 001°02'0 0.3
2014-Oct-24 10:29N 50°35' W 001°01'0 0.0
2014-Oct-24 09:32N 50°35' W 001°01'0 0.0
2014-Oct-24 08:32N 50°35' W 001°01'0 0.0
2014-Oct-24 07:29N 50°35' W 001°01'0 0.0
2014-Oct-24 06:29N 50°35' W 001°01'0 0.0
2014-Oct-24 05:32N 50°35' W 001°01'0 0.3
2014-Oct-24 04:29N 50°35' W 001°02'0 0.1
2014-Oct-24 03:29N 50°35' W 001°02'0 0.0
2014-Oct-24 02:32N 50°35' W 001°02'0 0.0
2014-Oct-24 01:29N 50°35' W 001°02'0 0.0
2014-Oct-24 00:29N 50°35' W 001°02'0 0.0
2014-Oct-23 23:29N 50°35' W 001°02'0 0.4
2014-Oct-23 22:29N 50°35' W 001°01'0 0.1
2014-Oct-23 21:29N 50°35' W 001°01'0 0.0
2014-Oct-23 20:32N 50°35' W 001°01'0 0.0
2014-Oct-23 19:29N 50°35' W 001°01'0 0.0
2014-Oct-23 18:32N 50°35' W 001°01'0 0.0
2014-Oct-23 17:29N 50°35' W 001°01'0 0.2
2014-Oct-23 16:17N 50°35' W 001°01'0 0.2
2014-Oct-23 15:29N 50°35' W 001°02'0 0.0
2014-Oct-23 14:23N 50°35' W 001°02'0 0.0
2014-Oct-23 13:29N 50°35' W 001°02'0 0.0
2014-Oct-23 12:32N 50°35' W 001°02'0 0.0
2014-Oct-23 11:29N 50°35' W 001°02'0 0.4
2014-Oct-23 10:29N 50°35' W 001°01'0 0.0
2014-Oct-23 09:32N 50°35' W 001°01'0 0.1
2014-Oct-23 08:33N 50°35' W 001°01'3 2.8
2014-Oct-23 07:34N 50°35' W 000°57'9 9.0
2014-Oct-23 06:33N 50°33' W 000°43'1110.7
2014-Oct-23 05:33N 50°31' W 000°26'1311.8
2014-Oct-23 04:30N 50°31' W 000°07'1213.2
2014-Oct-23 03:34N 50°34' E 000°12'1313.4
2014-Oct-23 02:34N 50°37' E 000°33'1313.0
2014-Oct-23 01:34N 50°45' E 000°49'1211.8
2014-Oct-23 00:33N 50°52' E 001°05'1010.5
2014-Oct-22 23:33N 50°59' E 001°17'1010.0
2014-Oct-22 22:34N 51°05' E 001°29'1110.7
2014-Oct-22 21:34N 51°12' E 001°42'1312.8
2014-Oct-22 20:34N 51°23' E 001°53'1414.2
2014-Oct-22 19:33N 51°34' E 002°07'1414.1
2014-Oct-22 18:32N 51°45' E 002°23'4811.7
2014-Oct-22 14:27N 52°04' E 003°33'910.3
2014-Oct-22 13:33N 52°05' E 003°49'4 3.6
2014-Oct-22 12:34N 52°03' E 003°53'2 1.7
2014-Oct-22 11:33N 52°02' E 003°56'7 6.5
2014-Oct-22 10:33N 51°59' E 004°05'4 3.6
2014-Oct-22 09:33N 51°56' E 004°10'0 0.0
2014-Oct-22 08:32N 51°56' E 004°10'0 0.0
2014-Oct-22 07:32N 51°56' E 004°10'0 0.0
2014-Oct-22 06:32N 51°56' E 004°10'0 0.0
2014-Oct-22 05:32N 51°56' E 004°10'0 0.0
2014-Oct-22 04:32N 51°56' E 004°10'0 0.0
2014-Oct-22 03:32N 51°56' E 004°10'0 0.0
2014-Oct-22 02:32N 51°56' E 004°10'0 0.0
2014-Oct-22 01:29N 51°56' E 004°10'0 0.0
2014-Oct-22 00:32N 51°56' E 004°10'0 0.0
2014-Oct-21 23:32N 51°56' E 004°10'0 0.0
2014-Oct-21 22:32N 51°56' E 004°10'0 0.0
2014-Oct-21 21:32N 51°56' E 004°10'0 0.0
2014-Oct-21 20:32N 51°56' E 004°10'0 0.0
2014-Oct-21 19:32N 51°56' E 004°10'0 0.0
2014-Oct-21 18:29N 51°56' E 004°10'0 0.0
2014-Oct-21 17:32N 51°56' E 004°10'0 0.0
2014-Oct-21 16:32N 51°56' E 004°10'0 0.0
2014-Oct-21 15:32N 51°56' E 004°10'0 0.0
2014-Oct-21 14:32N 51°56' E 004°10'3 2.7
2014-Oct-21 13:33N 51°58' E 004°06'1010.0
2014-Oct-21 12:33N 52°01' E 003°51'6 5.5
2014-Oct-21 11:33N 52°01' E 003°42'  

Dump ship's entire track history